Time;durP1;ratioP1;P1;durP2;ratioP2;P2;SDS_P1;SDS_P2;PMS_P1;PMS_P2;Temp;Humidity;BMP_temperature;BMP_pressure;BME280_temperature;BME280_humidity;BME280_pressure;Samples;Min_cycle;Max_cycle;Signal;HPM_P1;HPM_P2
2022/02/14 00:00:18;;;;;;;7.60;3.58;;;9.30;99.90;;;;;;5187586;22;20401;-72
2022/02/14 00:02:19;;;;;;;5.57;2.80;;;9.30;99.90;;;;;;5188423;22;22110;-71
2022/02/14 00:04:19;;;;;;;6.80;2.92;;;9.30;99.90;;;;;;5188131;22;20019;-71
2022/02/14 00:06:20;;;;;;;8.02;3.50;;;9.30;99.90;;;;;;5184625;22;20011;-71
2022/02/14 00:08:20;;;;;;;11.13;3.20;;;9.30;99.90;;;;;;5188556;22;20358;-72
2022/02/14 00:10:21;;;;;;;9.40;3.42;;;9.20;99.90;;;;;;5187039;22;20078;-72
2022/02/14 00:12:22;;;;;;;10.98;3.22;;;9.30;99.90;;;;;;5185815;22;20720;-71
2022/02/14 00:14:23;;;;;;;7.43;3.15;;;9.20;99.90;;;;;;5188169;22;20011;-71
2022/02/14 00:16:23;;;;;;;6.63;2.53;;;9.30;99.90;;;;;;5159327;23;20063;-71
2022/02/14 00:18:24;;;;;;;7.45;2.70;;;9.30;99.90;;;;;;5185793;22;20008;-71
2022/02/14 00:20:25;;;;;;;8.88;3.58;;;9.20;99.90;;;;;;5186701;22;20083;-71
2022/02/14 00:22:25;;;;;;;6.50;2.95;;;9.30;99.90;;;;;;5187899;22;20007;-71
2022/02/14 00:24:26;;;;;;;6.75;2.85;;;9.30;99.90;;;;;;5187919;22;20086;-71
2022/02/14 00:26:27;;;;;;;5.60;2.83;;;9.30;99.90;;;;;;5186967;22;20443;-71
2022/02/14 00:28:27;;;;;;;10.93;3.10;;;9.30;99.90;;;;;;5187532;22;20012;-72
2022/02/14 00:30:29;;;;;;;6.93;2.97;;;9.30;99.90;;;;;;5186916;22;20023;-71
2022/02/14 00:32:29;;;;;;;7.50;2.90;;;9.30;99.90;;;;;;5187486;22;20012;-71
2022/02/14 00:34:30;;;;;;;5.80;2.92;;;9.30;99.90;;;;;;5188647;22;20015;-71
2022/02/14 00:36:30;;;;;;;7.72;3.10;;;9.30;99.90;;;;;;5185265;22;20380;-71
2022/02/14 00:38:31;;;;;;;11.98;3.65;;;9.30;99.90;;;;;;5187647;22;20318;-71
2022/02/14 00:40:32;;;;;;;6.93;3.30;;;9.30;99.90;;;;;;5187791;22;20564;-71
2022/02/14 00:42:32;;;;;;;8.88;3.05;;;9.30;99.90;;;;;;5188697;22;20066;-71
2022/02/14 00:44:33;;;;;;;9.68;3.17;;;9.20;99.90;;;;;;5188177;22;20011;-71
2022/02/14 00:46:34;;;;;;;10.43;3.40;;;9.20;99.90;;;;;;5184884;22;20369;-72
2022/02/14 00:48:34;;;;;;;10.45;3.55;;;9.20;99.90;;;;;;5186264;22;20012;-71
2022/02/14 00:50:35;;;;;;;9.65;3.25;;;9.20;99.90;;;;;;5185208;22;20011;-71
2022/02/14 00:52:35;;;;;;;5.30;2.83;;;9.20;99.90;;;;;;5188273;22;20437;-71
2022/02/14 00:54:36;;;;;;;7.95;3.22;;;9.20;99.90;;;;;;5188337;22;20012;-71
2022/02/14 00:56:36;;;;;;;8.20;3.10;;;9.20;99.90;;;;;;5186965;22;20042;-71
2022/02/14 00:58:37;;;;;;;5.88;2.70;;;9.20;99.90;;;;;;5188366;22;20073;-71
2022/02/14 01:00:38;;;;;;;5.18;2.90;;;9.20;99.90;;;;;;5184741;22;20014;-71
2022/02/14 01:02:39;;;;;;;6.45;3.15;;;9.20;99.90;;;;;;5185834;22;20023;-71
2022/02/14 01:04:39;;;;;;;13.05;2.85;;;9.20;99.90;;;;;;5187313;22;20011;-71
2022/02/14 01:06:41;;;;;;;10.32;3.22;;;9.20;99.90;;;;;;5186741;22;20441;-71
2022/02/14 01:08:42;;;;;;;7.80;2.30;;;9.20;99.90;;;;;;5187141;22;20336;-71
2022/02/14 01:10:42;;;;;;;7.05;3.20;;;9.20;99.90;;;;;;5185016;22;20075;-71
2022/02/14 01:12:43;;;;;;;5.05;2.63;;;9.20;99.90;;;;;;5189160;22;20039;-71
2022/02/14 01:14:44;;;;;;;7.38;2.78;;;9.20;99.90;;;;;;5188274;22;20012;-71
2022/02/14 01:16:44;;;;;;;6.45;2.88;;;9.20;99.90;;;;;;5184756;22;20013;-71
2022/02/14 01:18:45;;;;;;;6.78;2.42;;;9.20;99.90;;;;;;5188536;22;20329;-71
2022/02/14 01:20:46;;;;;;;10.50;2.88;;;9.30;99.90;;;;;;5187731;22;20392;-71
2022/02/14 01:22:46;;;;;;;7.85;2.67;;;9.20;99.90;;;;;;5188187;22;20043;-71
2022/02/14 01:24:47;;;;;;;9.40;3.05;;;9.20;99.90;;;;;;5188498;22;20031;-71
2022/02/14 01:26:47;;;;;;;7.18;3.15;;;9.20;99.90;;;;;;5187671;22;20014;-71
2022/02/14 01:28:48;;;;;;;7.75;3.28;;;9.30;99.90;;;;;;5185786;22;20015;-71
2022/02/14 01:30:48;;;;;;;7.32;3.05;;;9.30;99.90;;;;;;5187903;22;20054;-71
2022/02/14 01:32:49;;;;;;;7.70;2.85;;;9.30;99.90;;;;;;5184971;22;20091;-71
2022/02/14 01:34:50;;;;;;;10.23;3.63;;;9.30;99.90;;;;;;5188187;22;21135;-71
2022/02/14 01:36:51;;;;;;;5.82;2.95;;;9.30;99.90;;;;;;5187624;22;20081;-71
2022/02/14 01:38:52;;;;;;;4.88;2.40;;;9.30;99.90;;;;;;5188215;22;20020;-71
2022/02/14 01:40:52;;;;;;;10.75;3.33;;;9.30;99.90;;;;;;5187264;22;20082;-71
2022/02/14 01:42:53;;;;;;;7.78;3.00;;;9.30;99.90;;;;;;5188143;22;20067;-71
2022/02/14 01:44:53;;;;;;;12.77;2.95;;;9.30;99.90;;;;;;5187946;22;20019;-71
2022/02/14 01:46:54;;;;;;;8.07;2.78;;;9.40;99.90;;;;;;5185071;22;20019;-71
2022/02/14 01:48:55;;;;;;;9.10;3.58;;;9.40;99.90;;;;;;5188076;22;20069;-71
2022/02/14 01:50:55;;;;;;;10.57;2.78;;;9.40;99.90;;;;;;5186481;22;20016;-71
2022/02/14 01:52:56;;;;;;;10.32;3.28;;;9.40;99.90;;;;;;5185189;22;20194;-71
2022/02/14 01:54:58;;;;;;;4.90;2.50;;;9.40;99.90;;;;;;5187675;22;20096;-71
2022/02/14 01:56:59;;;;;;;5.32;2.80;;;9.40;99.90;;;;;;5187202;22;20095;-71
2022/02/14 01:58:59;;;;;;;10.80;2.90;;;9.40;99.90;;;;;;5187477;22;20016;-71
2022/02/14 02:01:00;;;;;;;10.35;2.95;;;9.40;99.90;;;;;;5186707;22;20012;-71
2022/02/14 02:03:01;;;;;;;6.53;2.70;;;9.40;99.90;;;;;;5160970;23;20012;-71
2022/02/14 02:05:02;;;;;;;8.40;2.85;;;9.40;99.90;;;;;;5189382;22;20015;-71
2022/02/14 02:07:04;;;;;;;6.55;2.53;;;9.40;99.90;;;;;;5189183;22;20087;-71
2022/02/14 02:09:04;;;;;;;9.23;2.63;;;9.40;99.90;;;;;;5189036;22;20379;-71
2022/02/14 02:13:24;;;;;;;6.43;2.65;;;9.30;99.90;;;;;;5188806;22;20012;-71
2022/02/14 02:15:25;;;;;;;8.05;2.67;;;9.40;99.90;;;;;;5185646;22;20014;-71
2022/02/14 02:17:31;;;;;;;7.20;2.78;;;9.40;99.90;;;;;;5185996;22;20019;-71
2022/02/14 02:19:32;;;;;;;8.98;2.83;;;9.40;99.90;;;;;;5186405;22;20018;-71
2022/02/14 02:21:33;;;;;;;11.23;3.20;;;9.40;99.90;;;;;;5188171;22;20429;-71
2022/02/14 02:23:38;;;;;;;10.18;3.13;;;9.50;99.90;;;;;;5189086;22;20007;-71
2022/02/14 02:25:39;;;;;;;10.57;2.80;;;9.40;99.90;;;;;;5187517;22;20008;-71
2022/02/14 02:27:42;;;;;;;9.57;2.78;;;9.40;99.90;;;;;;5188792;22;20003;-71
2022/02/14 02:29:43;;;;;;;7.97;2.50;;;9.50;99.90;;;;;;5187651;22;20012;-71
2022/02/14 02:31:43;;;;;;;6.72;2.55;;;9.50;99.90;;;;;;5188876;22;20070;-71
2022/02/14 02:33:44;;;;;;;7.35;2.78;;;9.50;99.90;;;;;;5186821;22;20077;-71
2022/02/14 02:35:44;;;;;;;9.30;2.90;;;9.50;99.90;;;;;;5188978;22;20034;-71
2022/02/14 02:37:45;;;;;;;9.50;2.60;;;9.50;99.90;;;;;;5186116;22;20022;-71
2022/02/14 02:39:46;;;;;;;7.90;2.65;;;9.50;99.90;;;;;;5189486;22;20057;-71
2022/02/14 02:41:47;;;;;;;14.07;2.95;;;9.50;99.90;;;;;;5186157;22;20472;-71
2022/02/14 02:43:48;;;;;;;7.15;2.58;;;9.50;99.90;;;;;;5188986;22;20090;-71
2022/02/14 02:45:53;;;;;;;7.95;2.85;;;9.50;99.90;;;;;;5188279;22;20014;-71
2022/02/14 02:47:57;;;;;;;9.65;2.53;;;9.50;99.90;;;;;;5188794;22;20022;-71
2022/02/14 02:49:57;;;;;;;9.30;2.75;;;9.50;99.90;;;;;;5186174;22;20012;-71
2022/02/14 02:51:58;;;;;;;8.77;2.80;;;9.50;99.90;;;;;;5188096;22;20036;-71
2022/02/14 02:53:59;;;;;;;13.38;3.35;;;9.50;99.90;;;;;;5188329;22;20014;-71
2022/02/14 02:56:02;;;;;;;8.90;2.75;;;9.50;99.90;;;;;;5185424;22;20020;-71
2022/02/14 02:58:03;;;;;;;8.25;2.92;;;9.60;99.90;;;;;;5187479;22;20134;-71
2022/02/14 03:00:04;;;;;;;6.05;2.58;;;9.50;99.90;;;;;;5188510;22;20019;-71
2022/02/14 03:02:06;;;;;;;5.90;2.22;;;9.50;99.90;;;;;;5186160;22;20016;-71
2022/02/14 03:04:10;;;;;;;6.25;2.95;;;9.50;99.90;;;;;;5188509;22;20015;-71
2022/02/14 03:06:11;;;;;;;7.75;2.60;;;9.50;99.90;;;;;;5185402;22;20026;-71
2022/02/14 03:08:11;;;;;;;8.27;2.95;;;9.50;99.90;;;;;;5187816;22;20019;-71
2022/02/14 03:10:12;;;;;;;8.10;2.83;;;9.60;99.90;;;;;;5187347;22;20008;-71
2022/02/14 03:12:12;;;;;;;7.60;2.92;;;9.60;99.90;;;;;;5189595;22;20087;-71
2022/02/14 03:14:14;;;;;;;6.68;2.70;;;9.50;99.90;;;;;;5189134;22;20038;-71
2022/02/14 03:16:15;;;;;;;7.20;2.47;;;9.60;99.90;;;;;;5188193;22;20011;-71
2022/02/14 03:18:16;;;;;;;10.15;2.88;;;9.60;99.90;;;;;;5189355;22;20090;-71
2022/02/14 03:20:17;;;;;;;4.88;2.22;;;9.50;99.90;;;;;;5188396;22;20325;-71
2022/02/14 03:22:17;;;;;;;5.45;2.53;;;9.50;99.90;;;;;;5189084;22;20476;-71
2022/02/14 03:24:18;;;;;;;8.35;2.50;;;9.50;99.90;;;;;;5188754;22;20016;-71
2022/02/14 03:26:20;;;;;;;7.60;2.50;;;9.50;99.90;;;;;;5187986;22;20075;-71
2022/02/14 03:28:21;;;;;;;7.35;2.45;;;9.60;99.90;;;;;;5189066;22;20022;-71
2022/02/14 03:30:22;;;;;;;6.72;2.60;;;9.50;99.90;;;;;;5187745;22;20043;-71
2022/02/14 03:32:22;;;;;;;7.32;2.50;;;9.50;99.90;;;;;;5186210;22;20030;-71
2022/02/14 03:34:23;;;;;;;7.45;2.33;;;9.50;99.90;;;;;;5188726;22;20019;-71
2022/02/14 03:36:24;;;;;;;4.68;2.17;;;9.60;99.90;;;;;;5187839;22;20138;-71
2022/02/14 03:38:24;;;;;;;5.40;2.47;;;9.60;99.90;;;;;;5188293;22;20043;-71
2022/02/14 03:40:26;;;;;;;7.28;2.53;;;9.60;99.90;;;;;;5188072;22;20007;-71
2022/02/14 03:42:26;;;;;;;10.32;2.70;;;9.60;99.90;;;;;;5186254;22;20018;-71
2022/02/14 03:44:27;;;;;;;7.47;2.50;;;9.60;99.90;;;;;;5187992;22;20083;-71
2022/02/14 03:46:28;;;;;;;8.65;2.67;;;9.60;99.90;;;;;;5187419;22;20404;-71
2022/02/14 03:48:28;;;;;;;7.20;2.75;;;9.60;99.90;;;;;;5188782;22;20007;-71
2022/02/14 03:50:30;;;;;;;6.60;2.50;;;9.60;99.90;;;;;;5185234;22;20092;-71
2022/02/14 03:52:31;;;;;;;7.57;1.95;;;9.60;99.90;;;;;;5188069;22;20068;-71
2022/02/14 03:54:31;;;;;;;4.57;2.10;;;9.60;99.90;;;;;;5185879;22;20012;-71
2022/02/14 03:56:32;;;;;;;8.20;2.83;;;9.60;99.90;;;;;;5186802;22;20011;-71
2022/02/14 03:58:33;;;;;;;5.28;2.00;;;9.70;99.90;;;;;;5188370;22;20095;-71
2022/02/14 04:00:34;;;;;;;7.35;2.28;;;9.70;99.90;;;;;;5187825;22;20022;-71
2022/02/14 04:02:35;;;;;;;5.82;2.50;;;9.70;99.90;;;;;;5188764;22;20437;-71
2022/02/14 04:04:36;;;;;;;6.60;2.85;;;9.70;99.90;;;;;;5185295;22;20014;-71
2022/02/14 04:06:36;;;;;;;3.45;2.00;;;9.70;99.90;;;;;;5187894;22;20104;-71
2022/02/14 04:08:37;;;;;;;10.85;2.80;;;9.70;99.90;;;;;;5185781;22;20392;-71
2022/02/14 04:10:37;;;;;;;8.52;2.25;;;9.80;99.90;;;;;;5185271;22;20016;-71
2022/02/14 04:12:38;;;;;;;7.97;2.35;;;9.80;99.90;;;;;;5185831;22;20014;-71
2022/02/14 04:14:39;;;;;;;6.13;2.55;;;9.70;99.90;;;;;;5186050;22;20541;-71
2022/02/14 04:16:39;;;;;;;5.28;2.08;;;9.80;99.90;;;;;;5187561;22;20437;-71
2022/02/14 04:18:40;;;;;;;8.82;2.10;;;9.80;99.90;;;;;;5187377;22;20511;-71
2022/02/14 04:20:40;;;;;;;4.47;2.35;;;9.80;99.90;;;;;;5187383;22;20382;-71
2022/02/14 04:22:41;;;;;;;7.88;2.20;;;9.80;99.90;;;;;;5186214;22;20011;-71
2022/02/14 04:24:42;;;;;;;11.02;2.20;;;9.80;99.90;;;;;;5185121;22;20011;-71
2022/02/14 04:26:42;;;;;;;8.73;2.20;;;9.80;99.90;;;;;;5186742;22;20133;-71
2022/02/14 04:28:43;;;;;;;4.47;2.17;;;9.80;99.90;;;;;;5186950;22;20004;-71
2022/02/14 04:30:44;;;;;;;12.85;2.53;;;9.80;99.90;;;;;;5184523;22;20081;-71
2022/02/14 04:32:44;;;;;;;6.38;2.45;;;9.80;99.90;;;;;;5188862;22;20037;-71
2022/02/14 04:34:45;;;;;;;6.80;2.20;;;9.80;99.90;;;;;;5187885;22;20008;-71
2022/02/14 04:36:47;;;;;;;5.30;2.53;;;9.80;99.90;;;;;;5187661;22;20397;-71
2022/02/14 04:38:47;;;;;;;3.90;2.13;;;9.90;99.90;;;;;;5188359;22;20019;-71
2022/02/14 04:40:48;;;;;;;5.45;2.42;;;9.80;99.90;;;;;;5187831;22;20011;-71
2022/02/14 04:42:49;;;;;;;5.55;1.85;;;9.80;99.90;;;;;;5188657;22;20079;-71
2022/02/14 04:44:50;;;;;;;8.55;1.90;;;9.80;99.90;;;;;;5184872;22;20445;-71
2022/02/14 04:46:50;;;;;;;5.03;2.28;;;9.80;99.90;;;;;;5187389;22;20061;-71
2022/02/14 04:48:52;;;;;;;7.53;2.38;;;9.80;99.90;;;;;;5185244;22;20012;-71
2022/02/14 04:50:53;;;;;;;9.55;2.33;;;9.80;99.90;;;;;;5187497;22;20019;-71
2022/02/14 04:52:54;;;;;;;6.18;2.05;;;9.80;99.90;;;;;;5188123;22;20004;-71
2022/02/14 04:54:54;;;;;;;4.72;2.00;;;9.80;99.90;;;;;;5187342;22;20016;-71
2022/02/14 04:56:55;;;;;;;6.25;2.20;;;9.80;99.90;;;;;;5187543;22;20015;-71
2022/02/14 04:58:56;;;;;;;6.85;2.17;;;9.80;99.90;;;;;;5188098;22;20022;-71
2022/02/14 05:00:57;;;;;;;6.47;2.53;;;9.80;99.90;;;;;;5184588;22;20015;-71
2022/02/14 05:02:57;;;;;;;4.78;2.13;;;9.80;99.90;;;;;;5184923;22;20020;-71
2022/02/14 05:04:58;;;;;;;4.18;2.17;;;9.70;99.90;;;;;;5184770;22;20019;-71
2022/02/14 05:06:58;;;;;;;6.63;2.25;;;9.80;99.90;;;;;;5186881;22;20022;-71
2022/02/14 05:08:59;;;;;;;5.63;2.22;;;9.80;99.90;;;;;;5187418;22;20008;-71
2022/02/14 05:11:00;;;;;;;3.72;1.75;;;9.80;99.90;;;;;;5183496;22;20090;-71
2022/02/14 05:13:00;;;;;;;3.53;2.17;;;9.80;99.90;;;;;;5185504;22;20016;-71
2022/02/14 05:15:02;;;;;;;5.47;2.28;;;9.80;99.90;;;;;;5184788;22;20575;-71
2022/02/14 05:17:03;;;;;;;3.60;1.98;;;9.80;99.90;;;;;;5184743;22;20110;-71
2022/02/14 05:19:03;;;;;;;5.80;2.40;;;9.80;99.90;;;;;;5188202;22;20023;-71
2022/02/14 05:21:04;;;;;;;6.55;2.33;;;9.80;99.90;;;;;;5187644;22;20361;-71
2022/02/14 05:23:05;;;;;;;4.93;1.98;;;9.80;99.90;;;;;;5188106;22;20018;-71
2022/02/14 05:25:06;;;;;;;4.07;2.25;;;9.80;99.90;;;;;;5187577;22;20011;-71
2022/02/14 05:27:06;;;;;;;5.03;2.25;;;9.80;99.90;;;;;;5185573;22;20011;-71
2022/02/14 05:29:07;;;;;;;6.32;2.50;;;9.80;99.90;;;;;;5187547;22;20094;-71
2022/02/14 05:31:07;;;;;;;8.77;2.25;;;9.90;99.90;;;;;;5186979;22;20008;-71
2022/02/14 05:33:08;;;;;;;5.38;2.30;;;9.80;99.90;;;;;;5188068;22;20014;-71
2022/02/14 05:35:08;;;;;;;5.97;1.90;;;9.80;99.90;;;;;;5185324;22;20075;-71
2022/02/14 05:37:09;;;;;;;7.65;2.45;;;9.80;99.90;;;;;;5188700;22;20016;-71
2022/02/14 05:39:10;;;;;;;9.48;2.25;;;9.80;99.90;;;;;;5186328;22;20520;-71
2022/02/14 05:41:11;;;;;;;6.28;2.50;;;9.80;99.90;;;;;;5186327;22;20020;-71
2022/02/14 05:43:11;;;;;;;4.50;2.25;;;9.80;99.90;;;;;;5189585;22;20034;-72
2022/02/14 05:45:12;;;;;;;6.35;2.00;;;9.80;99.90;;;;;;5188842;22;20012;-72
2022/02/14 05:47:13;;;;;;;5.85;2.15;;;9.70;99.90;;;;;;5189040;22;20019;-72
2022/02/14 05:49:14;;;;;;;7.43;2.47;;;9.80;99.90;;;;;;5186847;22;20085;-72
2022/02/14 05:51:15;;;;;;;4.32;2.08;;;9.80;99.90;;;;;;5185907;22;20022;-72
2022/02/14 05:53:16;;;;;;;3.88;1.80;;;9.80;99.90;;;;;;5189969;22;20448;-72
2022/02/14 05:55:17;;;;;;;4.78;1.85;;;9.80;99.90;;;;;;5189141;22;20015;-72
2022/02/14 05:57:18;;;;;;;6.40;2.20;;;9.80;99.90;;;;;;5189731;22;20047;-72
2022/02/14 05:59:18;;;;;;;9.10;2.22;;;9.70;99.90;;;;;;5189487;22;20401;-72
2022/02/14 06:01:19;;;;;;;3.13;1.67;;;9.70;99.90;;;;;;5186097;22;20004;-72
2022/02/14 06:03:19;;;;;;;7.30;2.60;;;9.80;99.90;;;;;;5189815;22;20007;-72
2022/02/14 06:05:20;;;;;;;3.67;2.00;;;9.70;99.90;;;;;;5188967;22;20396;-72
2022/02/14 06:07:21;;;;;;;5.45;2.45;;;9.70;99.90;;;;;;5189203;22;20031;-72
2022/02/14 06:09:22;;;;;;;8.60;2.17;;;9.80;99.90;;;;;;5187629;22;20069;-72
2022/02/14 06:11:22;;;;;;;3.63;1.77;;;9.70;99.90;;;;;;5188939;22;20012;-72
2022/02/14 06:13:23;;;;;;;3.63;1.67;;;9.70;99.90;;;;;;5189629;22;20037;-72
2022/02/14 06:15:23;;;;;;;10.00;1.92;;;9.70;99.90;;;;;;5188427;22;20012;-72
2022/02/14 06:17:24;;;;;;;3.58;1.85;;;9.70;99.90;;;;;;5187103;22;20026;-72
2022/02/14 06:19:25;;;;;;;3.33;1.73;;;9.70;99.90;;;;;;5189697;22;20008;-72
2022/02/14 06:21:25;;;;;;;6.82;2.03;;;9.70;99.90;;;;;;5188748;22;20011;-72
2022/02/14 06:23:27;;;;;;;5.28;2.10;;;9.70;99.90;;;;;;5187476;22;20014;-72
2022/02/14 06:25:27;;;;;;;4.35;2.25;;;9.80;99.90;;;;;;5188356;22;20579;-71
2022/02/14 06:27:28;;;;;;;3.45;1.90;;;9.70;99.90;;;;;;5188917;22;20011;-72
2022/02/14 06:29:28;;;;;;;7.15;2.15;;;9.70;99.90;;;;;;5188885;22;20012;-72
2022/02/14 06:31:29;;;;;;;6.78;2.20;;;9.70;99.90;;;;;;5188314;22;20036;-71
2022/02/14 06:33:30;;;;;;;3.40;2.00;;;9.70;99.90;;;;;;5188865;22;20108;-72
2022/02/14 06:35:31;;;;;;;3.90;2.17;;;9.70;99.90;;;;;;5186967;22;20085;-71
2022/02/14 06:37:31;;;;;;;5.72;2.30;;;9.70;99.90;;;;;;5188254;22;20008;-70
2022/02/14 06:39:32;;;;;;;6.28;2.45;;;9.70;99.90;;;;;;5188474;22;20512;-69
2022/02/14 06:41:33;;;;;;;4.53;2.35;;;9.70;99.90;;;;;;5187267;22;20015;-70
2022/02/14 06:43:33;;;;;;;5.18;2.38;;;9.70;99.90;;;;;;5187952;22;20473;-70
2022/02/14 06:45:34;;;;;;;7.15;2.72;;;9.70;99.90;;;;;;5185436;22;20464;-70
2022/02/14 06:47:35;;;;;;;5.50;2.47;;;9.70;99.90;;;;;;5185870;22;20090;-70
2022/02/14 06:49:35;;;;;;;5.07;2.03;;;9.70;99.90;;;;;;5186138;22;20014;-70
2022/02/14 06:51:36;;;;;;;5.85;2.25;;;9.70;99.90;;;;;;5188020;22;20027;-70
2022/02/14 06:53:37;;;;;;;3.08;1.90;;;9.70;99.90;;;;;;5188477;22;20399;-70
2022/02/14 06:55:38;;;;;;;6.50;1.70;;;9.80;99.90;;;;;;5188218;22;20421;-70
2022/02/14 06:57:39;;;;;;;3.63;1.67;;;9.80;99.90;;;;;;5188416;22;20030;-70
2022/02/14 06:59:39;;;;;;;7.75;1.90;;;9.80;99.90;;;;;;5160900;23;20054;-70
2022/02/14 07:01:40;;;;;;;8.07;1.85;;;9.90;99.90;;;;;;5187932;22;20003;-70
2022/02/14 07:03:41;;;;;;;3.63;2.00;;;9.90;99.90;;;;;;5188175;22;20340;-70
2022/02/14 07:05:41;;;;;;;2.75;1.70;;;9.90;99.90;;;;;;5188221;22;20011;-70
2022/02/14 07:07:43;;;;;;;2.55;1.45;;;10.00;99.90;;;;;;5188217;22;20464;-70
2022/02/14 07:09:47;;;;;;;3.63;1.90;;;10.00;99.90;;;;;;5161386;23;20031;-70
2022/02/14 07:11:48;;;;;;;2.95;1.40;;;10.00;99.90;;;;;;5187091;22;20074;-70
2022/02/14 07:13:49;;;;;;;4.85;1.42;;;10.10;99.90;;;;;;5189988;22;20015;-70
2022/02/14 07:15:49;;;;;;;5.80;1.55;;;10.10;99.90;;;;;;5189091;22;20062;-70
2022/02/14 07:17:50;;;;;;;3.47;1.30;;;10.20;99.90;;;;;;5189041;22;20449;-70
2022/02/14 07:19:51;;;;;;;1.90;1.33;;;10.20;99.90;;;;;;5184620;22;20004;-70
2022/02/14 07:21:51;;;;;;;5.43;1.45;;;10.30;99.90;;;;;;5187366;22;20007;-70
2022/02/14 07:23:52;;;;;;;1.35;1.10;;;10.40;99.90;;;;;;5189283;22;20007;-70
2022/02/14 07:25:53;;;;;;;3.13;1.40;;;10.40;99.90;;;;;;5187821;22;20008;-70
2022/02/14 07:27:54;;;;;;;4.78;1.60;;;10.40;99.90;;;;;;5188697;22;20057;-70
2022/02/14 07:29:54;;;;;;;1.75;1.00;;;10.40;99.90;;;;;;5188031;22;20435;-70
2022/02/14 07:31:55;;;;;;;3.40;1.30;;;10.50;99.90;;;;;;5187976;22;20019;-70
2022/02/14 07:33:55;;;;;;;5.28;1.42;;;10.50;99.90;;;;;;5188476;22;20037;-70
2022/02/14 07:35:56;;;;;;;3.47;1.30;;;10.50;99.90;;;;;;5188271;22;20008;-70
2022/02/14 07:37:57;;;;;;;2.13;1.20;;;10.60;99.90;;;;;;5188520;22;20024;-70
2022/02/14 07:39:58;;;;;;;3.25;1.40;;;10.60;99.90;;;;;;5185675;22;20015;-70
2022/02/14 07:41:59;;;;;;;2.95;1.17;;;10.70;99.90;;;;;;5183560;22;20018;-70
2022/02/14 07:44:00;;;;;;;4.15;1.75;;;10.70;99.90;;;;;;5188372;22;20422;-70
2022/02/14 07:46:01;;;;;;;3.47;1.20;;;10.70;99.90;;;;;;5184434;22;20322;-71
2022/02/14 07:48:02;;;;;;;3.22;1.42;;;10.80;99.90;;;;;;5186383;22;20035;-70
2022/02/14 07:50:06;;;;;;;3.30;1.83;;;10.80;99.90;;;;;;5182957;22;20456;-70
2022/02/14 07:52:07;;;;;;;4.13;1.50;;;10.90;99.90;;;;;;5186779;22;20458;-70
2022/02/14 07:54:07;;;;;;;4.88;1.65;;;10.90;99.90;;;;;;5188410;22;20016;-70
2022/02/14 07:56:12;;;;;;;3.30;1.10;;;10.90;99.90;;;;;;5187545;22;20437;-70
2022/02/14 07:58:13;;;;;;;4.05;1.48;;;11.00;99.90;;;;;;5187153;22;20353;-70
2022/02/14 08:00:14;;;;;;;3.00;1.20;;;11.00;99.90;;;;;;5186921;22;20016;-70
2022/02/14 08:02:14;;;;;;;1.67;1.05;;;11.00;99.90;;;;;;5187708;22;20468;-70
2022/02/14 08:04:15;;;;;;;3.60;1.05;;;11.00;99.90;;;;;;5187329;22;20039;-70
2022/02/14 08:06:15;;;;;;;3.53;1.45;;;11.00;99.90;;;;;;5184585;22;20079;-70
2022/02/14 08:08:16;;;;;;;5.47;1.40;;;11.10;99.90;;;;;;5187238;22;20011;-70
2022/02/14 08:10:16;;;;;;;3.55;1.40;;;11.20;99.90;;;;;;5188288;22;20138;-71
2022/02/14 08:12:18;;;;;;;3.33;1.40;;;11.30;99.90;;;;;;5189242;22;20079;-70
2022/02/14 08:14:18;;;;;;;2.80;1.35;;;11.50;99.90;;;;;;5185481;22;20011;-70
2022/02/14 08:16:19;;;;;;;4.15;1.20;;;11.70;99.90;;;;;;5187843;22;20476;-71
2022/02/14 08:18:20;;;;;;;2.92;1.20;;;12.00;99.90;;;;;;5188523;22;20471;-70
2022/02/14 08:20:20;;;;;;;3.00;1.17;;;12.20;99.90;;;;;;5187746;22;20031;-70
2022/02/14 08:22:21;;;;;;;4.18;1.48;;;12.40;99.90;;;;;;5184882;22;20023;-70
2022/02/14 08:24:22;;;;;;;2.17;1.50;;;12.50;99.90;;;;;;5188815;22;20431;-70
2022/02/14 08:26:23;;;;;;;3.42;1.50;;;12.50;99.90;;;;;;5184953;22;20016;-70
2022/02/14 08:28:23;;;;;;;2.08;1.00;;;12.50;99.90;;;;;;5185359;22;20408;-70
2022/02/14 08:30:24;;;;;;;2.78;1.38;;;12.50;99.90;;;;;;5187723;22;20027;-70
2022/02/14 08:32:25;;;;;;;5.18;1.13;;;12.50;99.90;;;;;;5185667;22;20580;-70
2022/02/14 08:34:25;;;;;;;4.70;1.33;;;12.40;99.90;;;;;;5188134;22;20023;-70
2022/02/14 08:36:27;;;;;;;4.00;1.40;;;12.40;99.90;;;;;;5187204;22;20737;-71
2022/02/14 08:38:27;;;;;;;4.60;1.55;;;12.30;99.90;;;;;;5187616;22;20103;-70
2022/02/14 08:40:28;;;;;;;2.25;1.27;;;12.20;99.90;;;;;;5187970;22;20325;-70
2022/02/14 08:42:28;;;;;;;3.72;1.35;;;12.20;99.90;;;;;;5187872;22;20027;-70
2022/02/14 08:44:30;;;;;;;2.70;1.17;;;12.20;99.90;;;;;;5187784;22;20078;-70
2022/02/14 08:46:31;;;;;;;3.33;1.15;;;12.10;99.90;;;;;;5187837;22;20451;-70
2022/02/14 08:48:31;;;;;;;1.67;1.00;;;12.10;99.90;;;;;;5187883;22;20015;-70
2022/02/14 08:50:32;;;;;;;4.45;1.10;;;12.20;99.90;;;;;;5186841;22;20016;-70
2022/02/14 08:52:33;;;;;;;1.30;0.80;;;12.20;99.90;;;;;;5187454;22;20085;-70
2022/02/14 08:54:34;;;;;;;3.67;1.50;;;12.20;99.90;;;;;;5187275;22;20450;-70
2022/02/14 08:56:35;;;;;;;3.58;1.48;;;12.10;99.90;;;;;;5186582;22;20019;-70
2022/02/14 08:58:37;;;;;;;2.00;0.90;;;12.10;99.90;;;;;;5185335;22;20443;-70
2022/02/14 09:00:38;;;;;;;4.80;1.58;;;12.20;99.90;;;;;;5184858;22;20014;-70
2022/02/14 09:02:38;;;;;;;6.30;1.38;;;12.20;99.90;;;;;;5185254;22;20011;-70
2022/02/14 09:04:39;;;;;;;1.52;1.20;;;12.20;99.90;;;;;;5188037;22;20387;-71
2022/02/14 09:06:39;;;;;;;1.98;1.05;;;12.20;99.90;;;;;;5187057;22;20393;-70
2022/02/14 09:08:40;;;;;;;1.58;0.82;;;12.10;99.90;;;;;;5185269;22;20840;-70
2022/02/14 09:10:41;;;;;;;4.45;1.30;;;12.20;99.90;;;;;;5188194;22;20073;-70
2022/02/14 09:12:42;;;;;;;2.17;0.98;;;12.10;99.90;;;;;;5186909;22;20008;-70
2022/02/14 09:14:43;;;;;;;4.97;1.10;;;12.10;99.90;;;;;;5189208;22;20012;-70
2022/02/14 09:16:46;;;;;;;5.20;1.10;;;12.10;99.90;;;;;;5186356;22;20016;-70
2022/02/14 09:18:47;;;;;;;;;;;12.10;99.90;;;;;;5189043;22;20011;-70
2022/02/14 09:20:47;;;;;;;3.80;1.20;;;12.00;99.90;;;;;;5186300;22;20273;-70
2022/02/14 09:22:48;;;;;;;2.20;1.17;;;11.90;99.90;;;;;;5190031;22;20074;-70
2022/02/14 09:24:48;;;;;;;2.17;1.17;;;11.90;99.90;;;;;;5190274;22;20038;-70
2022/02/14 09:26:49;;;;;;;6.18;1.35;;;12.00;99.90;;;;;;5189529;22;20012;-70
2022/02/14 09:28:50;;;;;;;2.38;1.02;;;12.00;99.90;;;;;;5186962;22;20012;-70
2022/02/14 09:30:51;;;;;;;3.25;1.13;;;11.90;99.90;;;;;;5185859;22;20419;-70
2022/02/14 09:32:51;;;;;;;2.35;1.02;;;11.90;99.90;;;;;;5187097;22;20008;-70
2022/02/14 09:34:52;;;;;;;8.85;1.35;;;11.90;99.90;;;;;;5186376;22;20082;-70
2022/02/14 09:36:53;;;;;;;2.45;1.23;;;11.90;99.90;;;;;;5189217;22;20310;-70
2022/02/14 09:38:53;;;;;;;2.13;1.05;;;11.90;99.90;;;;;;5186845;22;20090;-70
2022/02/14 09:40:55;;;;;;;2.75;1.15;;;12.00;99.90;;;;;;5186355;22;20015;-70
2022/02/14 09:42:57;;;;;;;2.88;1.30;;;12.00;99.90;;;;;;5186991;22;20073;-70
2022/02/14 09:44:58;;;;;;;1.85;0.85;;;12.00;99.90;;;;;;5186556;22;20104;-70
2022/02/14 09:46:59;;;;;;;5.53;1.45;;;12.00;99.90;;;;;;5186338;22;20408;-70
2022/02/14 09:49:04;;;;;;;1.88;1.20;;;12.00;99.90;;;;;;5186478;22;20019;-70
2022/02/14 09:51:05;;;;;;;2.22;1.08;;;12.00;99.90;;;;;;5161226;23;20043;-70
2022/02/14 09:53:09;;;;;;;2.85;1.08;;;12.00;99.90;;;;;;5188551;22;20016;-70
2022/02/14 09:55:09;;;;;;;2.05;0.90;;;11.90;99.90;;;;;;5188141;22;20011;-70
2022/02/14 09:57:12;;;;;;;2.95;1.48;;;12.00;99.90;;;;;;5189594;22;20027;-70
2022/02/14 09:59:14;;;;;;;1.73;0.88;;;12.00;99.90;;;;;;5188666;22;20138;-70
2022/02/14 10:01:15;;;;;;;3.58;1.40;;;12.00;99.90;;;;;;5188657;22;20027;-70
2022/02/14 10:03:19;;;;;;;4.43;1.13;;;12.00;99.90;;;;;;5189372;22;20073;-70
2022/02/14 10:05:21;;;;;;;1.27;0.85;;;12.00;99.90;;;;;;5185541;22;20011;-70
2022/02/14 10:07:22;;;;;;;1.83;1.00;;;11.90;99.90;;;;;;5186423;22;20031;-70
2022/02/14 10:09:24;;;;;;;2.65;0.90;;;11.90;99.90;;;;;;5189350;22;20012;-70
2022/02/14 10:11:25;;;;;;;1.75;0.60;;;11.90;99.90;;;;;;5188701;22;20047;-70
2022/02/14 10:13:34;;;;;;;1.92;0.70;;;11.90;99.90;;;;;;5186968;22;20487;-70
2022/02/14 10:15:49;;;;;;;1.08;0.47;;;11.90;99.90;;;;;;5188456;22;20015;-70
2022/02/14 10:17:59;;;;;;;0.55;0.55;;;11.90;99.90;;;;;;5188380;22;20465;-70
2022/02/14 10:20:00;;;;;;;1.13;0.50;;;11.80;99.90;;;;;;5188895;22;20062;-70
2022/02/14 10:22:07;;;;;;;2.35;0.90;;;11.90;99.90;;;;;;5187980;22;20027;-70
2022/02/14 10:24:10;;;;;;;0.98;0.63;;;12.00;99.90;;;;;;5187861;22;20345;-70
2022/02/14 10:26:18;;;;;;;2.85;1.20;;;12.00;99.90;;;;;;5188646;22;20016;-70
2022/02/14 10:28:25;;;;;;;1.05;0.88;;;12.00;99.90;;;;;;5188250;22;20012;-70
2022/02/14 10:30:26;;;;;;;1.40;0.70;;;12.00;99.90;;;;;;5185466;22;20608;-70
2022/02/14 10:32:27;;;;;;;2.78;0.60;;;12.00;99.90;;;;;;5188812;22;20079;-70
2022/02/14 10:34:49;;;;;;;0.57;0.50;;;12.00;99.90;;;;;;5188685;22;20081;-70
2022/02/14 10:36:50;;;;;;;1.13;0.60;;;12.00;99.90;;;;;;5186994;22;20317;-70